createdAt,value
2023-02-27T00:00:06.739Z,5.36
2023-02-27T00:01:28.481Z,4.95
2023-02-27T00:02:51.276Z,4.92
2023-02-27T00:04:13.878Z,5.83
2023-02-27T00:05:35.409Z,6.05
2023-02-27T00:06:57.821Z,5.63
2023-02-27T00:08:19.284Z,5.76
2023-02-27T00:09:40.605Z,6.51
2023-02-27T00:11:01.824Z,6.52
2023-02-27T00:12:23.405Z,5.47
2023-02-27T00:13:44.931Z,5.56
2023-02-27T00:15:11.035Z,4.98
2023-02-27T00:16:33.404Z,5.11
2023-02-27T00:17:54.785Z,3.88
2023-02-27T00:19:16.737Z,5.56
2023-02-27T00:20:38.147Z,4.94
2023-02-27T00:21:59.859Z,5.32
2023-02-27T00:23:21.273Z,5.41
2023-02-27T00:24:44.867Z,5.66
2023-02-27T00:26:06.240Z,5.64
2023-02-27T00:27:27.503Z,6.13
2023-02-27T00:28:48.916Z,6.67
2023-02-27T00:30:12.146Z,6.59
2023-02-27T00:31:34.004Z,7.03
2023-02-27T00:32:55.508Z,6.39
2023-02-27T00:34:16.963Z,5.41
2023-02-27T00:35:38.026Z,5.58
2023-02-27T00:36:59.042Z,5.33
2023-02-27T00:38:20.731Z,4.60
2023-02-27T00:39:42.129Z,5.09
2023-02-27T00:41:03.424Z,7.46
2023-02-27T00:42:24.872Z,6.14
2023-02-27T00:43:46.273Z,6.14
2023-02-27T00:45:08.393Z,5.29
2023-02-27T00:46:29.777Z,3.41
2023-02-27T00:47:51.121Z,5.01
2023-02-27T00:49:12.569Z,5.17
2023-02-27T00:50:34.146Z,4.28
2023-02-27T00:51:55.508Z,4.64
2023-02-27T00:53:17.690Z,6.89
2023-02-27T00:54:39.392Z,6.40
2023-02-27T00:56:00.699Z,5.68
2023-02-27T00:57:23.581Z,5.67
2023-02-27T00:58:46.087Z,5.53
2023-02-27T01:00:08.319Z,5.66
2023-02-27T01:01:29.803Z,5.08
2023-02-27T01:02:51.132Z,4.86
2023-02-27T01:04:12.779Z,5.00
2023-02-27T01:05:33.912Z,5.52
2023-02-27T01:06:55.385Z,5.08
2023-02-27T01:08:16.861Z,4.72
2023-02-27T01:09:38.578Z,4.19
2023-02-27T01:10:59.924Z,4.47
2023-02-27T01:12:21.468Z,4.41
2023-02-27T01:13:44.340Z,4.56
2023-02-27T01:15:06.625Z,3.77
2023-02-27T01:16:28.016Z,4.79
2023-02-27T01:17:49.204Z,4.18
2023-02-27T01:19:10.313Z,3.98
2023-02-27T01:20:32.113Z,4.02
2023-02-27T01:21:53.290Z,4.59
2023-02-27T01:23:14.519Z,4.48
2023-02-27T01:24:36.009Z,4.84
2023-02-27T01:25:57.490Z,4.10
2023-02-27T01:27:19.305Z,4.49
2023-02-27T01:28:41.470Z,4.79
2023-02-27T01:30:03.031Z,4.26
2023-02-27T01:31:24.265Z,4.02
2023-02-27T01:32:45.982Z,4.34
2023-02-27T01:34:07.650Z,4.54
2023-02-27T01:35:29.132Z,4.23
2023-02-27T01:36:50.521Z,3.87
2023-02-27T01:38:13.115Z,4.54
2023-02-27T01:39:34.370Z,4.09
2023-02-27T01:40:55.594Z,4.53
2023-02-27T01:42:22.282Z,4.41
2023-02-27T01:44:01.397Z,4.43
2023-02-27T01:45:33.910Z,4.42
2023-02-27T01:46:55.217Z,4.26
2023-02-27T01:48:33.957Z,4.76
2023-02-27T01:49:55.704Z,5.07
2023-02-27T01:51:18.538Z,5.04
2023-02-27T01:52:39.927Z,5.42
2023-02-27T01:54:01.218Z,5.23
2023-02-27T01:55:22.898Z,5.34
2023-02-27T01:56:44.528Z,4.97
2023-02-27T01:58:07.105Z,5.16
2023-02-27T02:00:49.935Z,4.72
2023-02-27T02:02:17.274Z,4.54
2023-02-27T02:03:50.577Z,4.88
2023-02-27T02:05:12.174Z,4.53
2023-02-27T02:06:35.171Z,4.51
2023-02-27T02:07:57.175Z,4.47
2023-02-27T02:09:18.817Z,4.54
2023-02-27T02:10:40.410Z,4.68
2023-02-27T02:12:01.711Z,5.14
2023-02-27T02:13:26.382Z,5.25
2023-02-27T02:14:47.996Z,5.12
2023-02-27T02:16:28.447Z,5.18
2023-02-27T02:21:37.678Z,4.71
2023-02-27T02:23:05.899Z,4.66
2023-02-27T02:24:50.093Z,5.64
2023-02-27T02:26:23.386Z,4.38
2023-02-27T02:27:59.564Z,4.87
2023-02-27T02:29:41.305Z,4.51
2023-02-27T02:31:22.128Z,4.84
2023-02-27T02:32:47.176Z,5.13
2023-02-27T02:34:28.579Z,5.18
2023-02-27T02:36:27.014Z,4.64
2023-02-27T02:37:57.880Z,5.33
2023-02-27T02:40:45.931Z,5.08
2023-02-27T02:42:12.259Z,5.88
2023-02-27T02:44:04.359Z,6.33
2023-02-27T03:00:24.656Z,6.16
2023-02-27T03:01:52.260Z,6.22
2023-02-27T03:03:20.678Z,7.02
2023-02-27T03:04:51.237Z,6.84
2023-02-27T03:06:16.356Z,7.12
2023-02-27T03:08:57.666Z,7.36
2023-02-27T03:10:22.814Z,7.23
2023-02-27T03:11:46.182Z,6.73
2023-02-27T03:13:11.400Z,5.86
2023-02-27T03:14:36.660Z,5.58
2023-02-27T03:16:02.090Z,4.77
2023-02-27T03:19:05.722Z,4.79
2023-02-27T03:20:37.111Z,4.47
2023-02-27T03:35:14.902Z,10.99
2023-02-27T03:36:46.604Z,7.69
2023-02-27T03:38:18.041Z,5.82
2023-02-27T03:39:43.356Z,5.07
2023-02-27T03:41:16.796Z,4.86
2023-02-27T03:46:05.075Z,4.24
2023-02-27T03:47:30.470Z,5.17
2023-02-27T03:48:51.838Z,4.92
2023-02-27T03:50:13.939Z,4.98
2023-02-27T03:51:35.314Z,6.01
2023-02-27T03:52:56.978Z,6.07
2023-02-27T03:54:24.407Z,5.52
2023-02-27T03:55:45.442Z,6.31
2023-02-27T03:57:09.088Z,5.92
2023-02-27T03:58:30.762Z,6.93
2023-02-27T03:59:52.010Z,6.65
2023-02-27T04:01:15.754Z,6.66
2023-02-27T04:02:37.468Z,7.24
2023-02-27T04:16:22.373Z,7.47
2023-02-27T04:19:43.991Z,11.71
2023-02-27T04:21:26.413Z,11.49
2023-02-27T04:22:51.427Z,9.77
2023-02-27T04:24:22.588Z,10.08
2023-02-27T04:27:37.569Z,7.89
2023-02-27T04:29:10.129Z,8.93
2023-02-27T04:32:19.580Z,7.73
2023-02-27T04:34:04.990Z,8.02
2023-02-27T04:55:11.381Z,3.51
2023-02-27T04:58:20.285Z,3.07
2023-02-27T04:59:44.803Z,5.43
2023-02-27T05:01:24.230Z,4.64
2023-02-27T05:02:49.525Z,5.19
2023-02-27T05:04:12.716Z,5.42
2023-02-27T05:05:44.214Z,5.18
2023-02-27T05:07:12.028Z,5.40
2023-02-27T05:08:41.200Z,5.88
2023-02-27T05:10:06.099Z,6.39
2023-02-27T05:11:31.613Z,6.12
2023-02-27T05:13:26.812Z,5.28
2023-02-27T05:15:03.857Z,4.77
2023-02-27T05:16:38.125Z,4.90
2023-02-27T05:18:09.776Z,4.72
2023-02-27T05:19:35.007Z,4.97
2023-02-27T05:31:26.726Z,5.21
2023-02-27T05:33:23.551Z,5.39
2023-02-27T05:40:24.209Z,6.77
2023-02-27T05:47:26.645Z,5.18
2023-02-27T06:12:26.490Z,6.85
2023-02-27T06:20:44.352Z,8.14
2023-02-27T07:31:49.961Z,18.22
2023-02-27T07:33:22.427Z,14.00
2023-02-27T07:34:45.852Z,15.16
2023-02-27T07:37:49.726Z,25.80
2023-02-27T07:39:14.444Z,24.18
2023-02-27T07:40:38.036Z,15.32
2023-02-27T07:42:01.447Z,13.57
2023-02-27T07:43:23.456Z,15.07
2023-02-27T07:44:46.584Z,15.13
2023-02-27T07:46:10.580Z,15.89
2023-02-27T07:47:32.161Z,14.21
2023-02-27T07:48:54.674Z,14.61
2023-02-27T07:50:19.393Z,12.46
2023-02-27T07:51:40.486Z,14.77
2023-02-27T07:53:01.739Z,12.24
2023-02-27T07:54:23.392Z,13.56
2023-02-27T07:55:45.840Z,15.56
2023-02-27T07:57:07.581Z,17.11
2023-02-27T07:58:28.919Z,14.84
2023-02-27T07:59:50.277Z,21.51
2023-02-27T08:01:11.549Z,13.02
2023-02-27T08:02:34.384Z,12.72
2023-02-27T08:03:56.280Z,13.52
2023-02-27T08:05:29.047Z,17.81
2023-02-27T08:06:50.408Z,17.06
2023-02-27T08:08:12.586Z,15.86
2023-02-27T08:09:38.243Z,17.53
2023-02-27T08:11:15.553Z,19.83
2023-02-27T08:12:37.604Z,17.99
2023-02-27T08:14:01.309Z,14.38
2023-02-27T08:15:22.763Z,15.54
2023-02-27T08:16:45.088Z,13.57
2023-02-27T08:18:08.242Z,11.16
2023-02-27T08:19:29.833Z,11.12
2023-02-27T08:20:57.982Z,11.62
2023-02-27T08:22:20.026Z,11.37
2023-02-27T12:33:03.132Z,7.04
2023-02-27T12:34:26.766Z,6.78
2023-02-27T12:35:52.160Z,6.19
2023-02-27T12:37:24.806Z,6.89
2023-02-27T12:38:46.146Z,7.62
2023-02-27T12:40:11.694Z,7.76
2023-02-27T12:41:36.631Z,7.24
2023-02-27T12:43:01.682Z,5.88
2023-02-27T12:44:46.187Z,6.46
2023-02-27T12:46:11.564Z,7.11
2023-02-27T12:47:37.845Z,6.96
2023-02-27T12:49:19.030Z,7.13
2023-02-27T12:50:52.898Z,7.18
2023-02-27T12:53:44.148Z,6.86
2023-02-27T12:56:21.280Z,8.91
2023-02-27T12:58:08.778Z,8.54
2023-02-27T12:59:51.873Z,8.36
2023-02-27T13:01:33.017Z,8.65
2023-02-27T13:03:03.896Z,9.21
2023-02-27T13:04:39.537Z,8.37
2023-02-27T13:06:13.663Z,8.46
2023-02-27T13:07:38.196Z,8.96
2023-02-27T13:09:03.498Z,9.70
2023-02-27T13:10:46.403Z,10.60
2023-02-27T13:12:15.488Z,7.59
2023-02-27T13:13:40.888Z,6.86
2023-02-27T13:15:07.958Z,7.09
2023-02-27T13:42:02.937Z,7.64
2023-02-27T13:43:51.156Z,7.93
2023-02-27T13:45:05.791Z,7.93
2023-02-27T13:46:30.958Z,8.30
2023-02-27T13:47:52.968Z,10.34
2023-02-27T13:49:28.862Z,8.99
2023-02-27T13:50:48.933Z,9.48
2023-02-27T13:52:10.255Z,9.63
2023-02-27T13:53:31.952Z,9.73
2023-02-27T13:54:57.255Z,9.81
2023-02-27T13:56:21.158Z,9.19
2023-02-27T13:57:43.075Z,8.34
2023-02-27T13:59:20.472Z,8.39
2023-02-27T14:00:43.075Z,9.39
2023-02-27T14:02:12.079Z,8.95
2023-02-27T14:03:34.744Z,10.65
2023-02-27T14:04:56.530Z,9.96
2023-02-27T14:08:06.867Z,9.62
2023-02-27T14:09:32.260Z,8.46
2023-02-27T14:11:19.543Z,10.23
2023-02-27T14:12:45.686Z,8.66
2023-02-27T14:14:09.525Z,9.43
2023-02-27T14:15:34.818Z,8.56
2023-02-27T14:17:00.224Z,9.18
2023-02-27T14:18:45.068Z,8.08
2023-02-27T14:20:18.386Z,7.47
2023-02-27T14:21:53.941Z,8.16
2023-02-27T14:23:19.861Z,8.12
2023-02-27T14:43:45.565Z,8.22
2023-02-27T14:45:24.446Z,11.83
2023-02-27T14:46:46.623Z,9.51
2023-02-27T14:48:11.180Z,8.78
2023-02-27T14:51:45.524Z,8.19
2023-02-27T14:53:12.354Z,10.98
2023-02-27T14:54:34.632Z,10.07
2023-02-27T14:55:57.528Z,6.93
2023-02-27T14:59:31.547Z,7.14
2023-02-27T15:01:01.070Z,8.99
2023-02-27T15:02:39.149Z,8.62
2023-02-27T15:04:00.725Z,9.36
2023-02-27T15:05:27.475Z,11.29
2023-02-27T15:06:50.250Z,11.06
2023-02-27T15:09:44.101Z,9.35
2023-02-27T15:11:08.053Z,7.88
2023-02-27T15:12:30.792Z,6.43
2023-02-27T15:15:09.914Z,7.57
2023-02-27T15:16:39.310Z,6.66
2023-02-27T15:18:01.500Z,5.75
2023-02-27T15:19:24.914Z,7.09
2023-02-27T15:20:46.534Z,6.36
2023-02-27T15:22:18.025Z,6.97
2023-02-27T15:23:39.749Z,7.39
2023-02-27T15:25:01.488Z,7.48
2023-02-27T15:26:24.470Z,7.23
2023-02-27T15:27:45.654Z,6.83
2023-02-27T15:29:07.679Z,5.74
2023-02-27T15:30:29.564Z,5.02
2023-02-27T15:31:51.622Z,6.88
2023-02-27T15:33:14.205Z,6.41
2023-02-27T15:38:26.721Z,4.48
2023-02-27T15:39:49.762Z,6.76
2023-02-27T15:41:11.872Z,5.76
2023-02-27T15:42:33.789Z,6.08
2023-02-27T15:43:55.653Z,6.59
2023-02-27T15:45:19.034Z,5.47
2023-02-27T15:46:40.598Z,5.95
2023-02-27T15:48:02.869Z,5.96
2023-02-27T15:49:25.775Z,6.02
2023-02-27T15:50:48.879Z,8.04
2023-02-27T15:52:22.203Z,7.38
2023-02-27T15:53:49.003Z,7.70
2023-02-27T15:55:15.007Z,7.15
2023-02-27T15:56:38.669Z,8.24
2023-02-27T15:58:03.887Z,9.95
2023-02-27T15:59:28.654Z,10.14
2023-02-27T16:14:52.047Z,4.68
2023-02-27T16:16:30.191Z,5.13
2023-02-27T16:17:58.533Z,5.02
2023-02-27T16:19:28.614Z,5.06
2023-02-27T16:20:51.582Z,4.97
2023-02-27T16:23:37.905Z,4.83
2023-02-27T16:25:09.174Z,5.20
2023-02-27T16:26:34.127Z,4.92
2023-02-27T16:27:55.533Z,4.60
2023-02-27T16:29:24.794Z,4.78
2023-02-27T16:30:50.323Z,5.07
2023-02-27T16:32:22.126Z,4.89
2023-02-27T16:33:43.498Z,4.34
2023-02-27T16:35:16.891Z,5.11
2023-02-27T16:36:40.150Z,4.82
2023-02-27T16:38:03.386Z,5.00
2023-02-27T16:39:24.665Z,4.53
2023-02-27T16:40:46.246Z,4.86
2023-02-27T16:42:08.326Z,4.83
2023-02-27T16:43:29.564Z,4.92
2023-02-27T16:44:52.019Z,5.67
2023-02-27T16:46:16.838Z,5.22
2023-02-27T16:47:38.517Z,5.41
2023-02-27T16:49:04.460Z,5.37
2023-02-27T16:50:29.473Z,5.01
2023-02-27T16:51:50.895Z,5.36
2023-02-27T16:53:12.585Z,6.14
2023-02-27T16:54:33.994Z,5.07
2023-02-27T16:55:55.458Z,5.31
2023-02-27T16:57:16.714Z,5.59
2023-02-27T16:58:38.444Z,5.48
2023-02-27T17:00:04.687Z,5.40
2023-02-27T17:01:29.493Z,5.31
2023-02-27T17:02:51.078Z,5.88
2023-02-27T17:04:25.273Z,6.05
2023-02-27T17:05:37.564Z,6.44
2023-02-27T17:07:00.593Z,6.82
2023-02-27T17:08:21.765Z,6.79
2023-02-27T17:10:58.971Z,7.40
2023-02-27T17:12:20.492Z,6.16
2023-02-27T17:13:41.750Z,6.09
2023-02-27T17:15:04.194Z,7.18
2023-02-27T17:16:26.477Z,6.78
2023-02-27T17:17:48.478Z,9.47
2023-02-27T17:19:10.366Z,7.09
2023-02-27T17:20:31.792Z,6.06
2023-02-27T17:21:53.215Z,7.16
2023-02-27T17:23:15.122Z,7.32
2023-02-27T17:24:37.057Z,7.05
2023-02-27T17:25:58.287Z,8.17
2023-02-27T17:27:21.358Z,7.19
2023-02-27T17:28:42.826Z,6.08
2023-02-27T17:30:06.480Z,6.67
2023-02-27T17:31:27.911Z,6.97
2023-02-27T17:32:52.573Z,7.03
2023-02-27T17:34:14.689Z,7.03
2023-02-27T17:35:37.400Z,7.59
2023-02-27T17:37:02.468Z,7.73
2023-02-27T17:38:24.203Z,7.62
2023-02-27T17:39:45.753Z,8.00
2023-02-27T17:41:08.714Z,8.87
2023-02-27T17:42:32.083Z,7.56
2023-02-27T17:43:54.518Z,7.74
2023-02-27T17:45:16.653Z,7.34
2023-02-27T17:46:38.614Z,5.58
2023-02-27T17:48:02.163Z,6.26
2023-02-27T17:49:24.033Z,4.77
2023-02-27T17:50:46.986Z,4.93
2023-02-27T17:52:08.953Z,5.18
2023-02-27T17:53:30.176Z,5.35
2023-02-27T17:54:52.584Z,5.38
2023-02-27T17:56:16.523Z,6.44
2023-02-27T17:57:39.482Z,5.94
2023-02-27T18:00:24.555Z,5.91
2023-02-27T18:01:46.298Z,4.92
2023-02-27T18:03:07.977Z,5.59
2023-02-27T18:04:30.574Z,5.31
2023-02-27T18:05:52.706Z,4.66
2023-02-27T18:07:15.116Z,4.76
2023-02-27T18:08:37.156Z,4.88
2023-02-27T18:10:00.912Z,4.82
2023-02-27T18:11:22.778Z,4.71
2023-02-27T18:12:45.044Z,4.76
2023-02-27T18:14:06.725Z,4.75
2023-02-27T18:15:30.204Z,4.79
2023-02-27T18:16:52.438Z,5.57
2023-02-27T18:18:14.533Z,5.44
2023-02-27T18:21:04.653Z,5.88
2023-02-27T18:22:27.136Z,6.04
2023-02-27T18:23:49.144Z,6.03
2023-02-27T18:25:10.751Z,5.38
2023-02-27T18:26:33.286Z,5.62
2023-02-27T18:27:55.649Z,7.21
2023-02-27T18:29:18.634Z,5.32
2023-02-27T18:30:41.114Z,5.53
2023-02-27T18:32:03.598Z,5.49
2023-02-27T18:33:26.416Z,5.54
2023-02-27T18:34:48.352Z,5.55
2023-02-27T18:36:10.518Z,4.92
2023-02-27T18:37:33.017Z,5.34
2023-02-27T18:38:55.033Z,5.49
2023-02-27T18:41:39.887Z,5.57
2023-02-27T18:43:01.792Z,6.04
2023-02-27T18:44:24.284Z,6.18
2023-02-27T18:45:46.059Z,6.13
2023-02-27T18:47:09.125Z,6.35
2023-02-27T18:48:32.480Z,5.89
2023-02-27T18:49:54.981Z,5.52
2023-02-27T18:51:16.651Z,4.55
2023-02-27T18:52:38.233Z,5.29
2023-02-27T18:54:00.238Z,5.56
2023-02-27T18:55:22.805Z,5.40
2023-02-27T18:56:44.816Z,5.95
2023-02-27T18:58:06.860Z,7.45
2023-02-27T18:59:29.549Z,6.80
2023-02-27T19:00:51.992Z,7.73
2023-02-27T19:02:15.570Z,8.14
2023-02-27T19:03:37.305Z,8.68
2023-02-27T19:05:00.735Z,8.88
2023-02-27T19:06:22.903Z,9.97
2023-02-27T19:07:44.672Z,9.52
2023-02-27T19:09:06.472Z,11.62
2023-02-27T19:10:28.706Z,11.59
2023-02-27T19:11:51.472Z,8.03
2023-02-27T19:13:14.718Z,10.59
2023-02-27T19:16:30.650Z,10.06
2023-02-27T19:19:17.061Z,10.25
2023-02-27T19:20:39.594Z,9.53
2023-02-27T19:22:01.252Z,9.61
2023-02-27T19:23:23.497Z,9.38
2023-02-27T19:24:45.285Z,8.92
2023-02-27T19:26:07.497Z,8.76
2023-02-27T19:27:29.579Z,6.51
2023-02-27T19:41:09.013Z,8.27
2023-02-27T19:43:47.527Z,11.20
2023-02-27T19:45:10.434Z,9.03
2023-02-27T19:46:33.762Z,8.38
2023-02-27T19:47:57.051Z,8.04
2023-02-27T19:49:20.720Z,8.61
2023-02-27T19:50:43.002Z,8.21
2023-02-27T19:52:05.272Z,8.36
2023-02-27T19:53:27.169Z,8.19
2023-02-27T19:54:49.376Z,7.39
2023-02-27T19:57:46.845Z,7.60
2023-02-27T19:59:15.287Z,7.64
2023-02-27T20:00:37.577Z,8.00
2023-02-27T20:02:00.357Z,8.53
2023-02-27T20:03:29.321Z,8.87
2023-02-27T20:04:51.918Z,8.44
2023-02-27T20:06:20.208Z,8.93
2023-02-27T20:07:42.168Z,9.31
2023-02-27T20:09:11.798Z,9.16
2023-02-27T20:10:33.681Z,8.00
2023-02-27T20:11:55.260Z,7.96
2023-02-27T20:13:16.840Z,7.29
2023-02-27T20:14:53.399Z,6.87
2023-02-27T20:16:16.982Z,6.64
2023-02-27T20:17:39.641Z,7.54
2023-02-27T20:20:42.827Z,6.35
2023-02-27T20:22:18.327Z,5.95
2023-02-27T20:23:42.562Z,6.95
2023-02-27T20:25:04.978Z,6.69
2023-02-27T20:26:36.099Z,6.87
2023-02-27T20:27:58.251Z,6.96
2023-02-27T20:29:21.747Z,7.85
2023-02-27T20:30:50.850Z,7.35
2023-02-27T20:32:19.648Z,7.43
2023-02-27T20:33:41.621Z,7.90
2023-02-27T20:35:03.544Z,7.87
2023-02-27T20:36:32.493Z,8.04
2023-02-27T20:37:54.519Z,6.79
2023-02-27T20:39:17.121Z,6.55
2023-02-27T20:40:38.699Z,6.51
2023-02-27T20:42:01.160Z,6.34
2023-02-27T20:43:22.778Z,6.41
2023-02-27T20:44:45.438Z,7.03
2023-02-27T20:46:09.526Z,7.27
2023-02-27T20:47:31.171Z,6.70
2023-02-27T21:01:00.994Z,6.46
2023-02-27T21:14:34.379Z,9.47
2023-02-27T21:18:17.693Z,7.89
2023-02-27T21:19:40.317Z,9.81
2023-02-27T21:21:03.185Z,9.39
2023-02-27T21:22:29.129Z,7.84
2023-02-27T21:23:51.726Z,8.09
2023-02-27T21:25:13.217Z,9.04
2023-02-27T21:26:38.486Z,7.43
2023-02-27T21:28:00.905Z,6.77
2023-02-27T21:29:23.839Z,5.02
2023-02-27T21:30:46.648Z,6.82
2023-02-27T21:32:10.222Z,5.99
2023-02-27T21:33:32.869Z,6.88
2023-02-27T21:34:54.830Z,6.48
2023-02-27T21:36:18.397Z,5.70
2023-02-27T21:37:41.008Z,7.06
2023-02-27T21:39:06.962Z,6.63
2023-02-27T21:40:29.167Z,7.55
2023-02-27T21:41:51.175Z,7.61
2023-02-27T21:43:12.743Z,8.49
2023-02-27T21:44:36.158Z,8.46
2023-02-27T21:45:57.295Z,8.73
2023-02-27T21:47:18.843Z,8.15
2023-02-27T21:48:41.058Z,7.69
2023-02-27T21:50:02.441Z,7.58
2023-02-27T21:51:38.790Z,7.09
2023-02-27T21:52:48.712Z,6.88
2023-02-27T21:54:10.626Z,7.04
2023-02-27T21:55:33.637Z,6.79
2023-02-27T21:56:57.188Z,6.78
2023-02-27T21:58:18.786Z,6.50
2023-02-27T21:59:40.903Z,6.47
2023-02-27T22:01:05.693Z,6.42
2023-02-27T22:02:27.732Z,6.04
2023-02-27T22:03:51.994Z,6.25
2023-02-27T22:05:13.577Z,6.58
2023-02-27T22:06:35.349Z,5.33
2023-02-27T22:07:58.086Z,7.05
2023-02-27T22:09:20.918Z,6.80
2023-02-27T22:10:42.831Z,8.13
2023-02-27T22:12:06.495Z,7.72
2023-02-27T22:13:28.087Z,7.76
2023-02-27T22:14:50.210Z,7.14
2023-02-27T22:16:11.697Z,6.95
2023-02-27T22:17:33.372Z,6.26
2023-02-27T22:18:55.563Z,6.68
2023-02-27T22:20:17.480Z,6.75
2023-02-27T22:21:39.152Z,6.74
2023-02-27T22:23:01.169Z,6.57
2023-02-27T22:24:22.970Z,8.02
2023-02-27T22:25:44.980Z,6.87
2023-02-27T22:27:09.775Z,9.13
2023-02-27T22:28:32.319Z,12.43
2023-02-27T22:29:54.501Z,8.03
2023-02-27T22:31:19.799Z,9.09
2023-02-27T22:32:42.426Z,8.24
2023-02-27T22:46:08.340Z,9.71
2023-02-27T22:48:44.003Z,11.26
2023-02-27T22:50:06.697Z,10.82
2023-02-27T22:51:29.247Z,10.36
2023-02-27T22:52:52.936Z,10.27
2023-02-27T22:54:15.469Z,10.44
2023-02-27T22:55:37.216Z,9.48
2023-02-27T22:56:58.771Z,9.82
2023-02-27T22:58:22.054Z,9.79
2023-02-27T22:59:43.897Z,9.74
2023-02-27T23:01:20.923Z,8.89
2023-02-27T23:02:43.361Z,9.26
2023-02-27T23:04:08.600Z,9.10
2023-02-27T23:05:32.271Z,8.49
2023-02-27T23:06:54.696Z,8.05
2023-02-27T23:08:16.931Z,7.72
2023-02-27T23:09:38.576Z,7.64
2023-02-27T23:11:00.156Z,7.50
2023-02-27T23:12:27.436Z,7.94
2023-02-27T23:13:49.777Z,8.07
2023-02-27T23:15:13.794Z,6.46
2023-02-27T23:16:35.111Z,8.33
2023-02-27T23:17:58.638Z,8.79
2023-02-27T23:19:21.184Z,8.62
2023-02-27T23:20:42.756Z,8.55
2023-02-27T23:22:05.927Z,7.29
2023-02-27T23:23:28.094Z,6.09
2023-02-27T23:24:50.135Z,6.29
2023-02-27T23:26:12.720Z,5.68
2023-02-27T23:27:34.850Z,5.59
2023-02-27T23:28:57.693Z,5.35
2023-02-27T23:30:20.394Z,5.53
2023-02-27T23:31:42.112Z,5.21
2023-02-27T23:33:03.651Z,5.08
2023-02-27T23:34:25.458Z,5.07
2023-02-27T23:35:47.305Z,5.12
2023-02-27T23:37:09.593Z,5.29
2023-02-27T23:38:31.387Z,4.05
2023-02-27T23:39:54.845Z,4.72
2023-02-27T23:41:16.628Z,4.97
2023-02-27T23:42:38.966Z,5.51
2023-02-27T23:44:00.463Z,5.07
2023-02-27T23:45:22.825Z,5.20
2023-02-27T23:46:45.149Z,5.08
2023-02-27T23:48:07.538Z,6.07
2023-02-27T23:49:29.294Z,4.97
2023-02-27T23:50:50.843Z,5.94
2023-02-27T23:52:12.271Z,5.14
2023-02-27T23:53:34.963Z,5.28
2023-02-27T23:54:59.738Z,5.56
2023-02-27T23:56:23.716Z,5.08
2023-02-27T23:57:45.874Z,5.47
2023-02-27T23:59:07.902Z,5.44
